createdAt,value
2019-05-25T00:01:56.605Z,5.43
2019-05-25T00:05:01.816Z,5.10
2019-05-25T00:08:06.876Z,5.03
2019-05-25T00:11:12.185Z,4.83
2019-05-25T00:14:18.781Z,4.90
2019-05-25T00:17:24.033Z,4.83
2019-05-25T00:20:29.128Z,4.67
2019-05-25T00:23:34.258Z,4.93
2019-05-25T00:26:39.247Z,5.57
2019-05-25T00:29:44.197Z,5.40
2019-05-25T00:32:49.240Z,4.73
2019-05-25T00:35:54.289Z,5.40
2019-05-25T00:38:59.239Z,4.60
2019-05-25T00:42:04.356Z,4.77
2019-05-25T00:45:09.663Z,6.63
2019-05-25T00:48:14.826Z,4.93
2019-05-25T00:51:20.098Z,5.63
2019-05-25T00:54:27.930Z,5.10
2019-05-25T00:57:32.088Z,4.87
2019-05-25T01:00:37.467Z,6.03
2019-05-25T01:03:42.538Z,5.17
2019-05-25T01:06:47.965Z,5.07
2019-05-25T01:09:52.854Z,5.63
2019-05-25T01:12:58.091Z,4.67
2019-05-25T01:16:03.069Z,5.07
2019-05-25T01:19:08.194Z,5.10
2019-05-25T01:22:13.148Z,6.23
2019-05-25T01:25:18.734Z,4.70
2019-05-25T01:28:23.678Z,6.00
2019-05-25T01:31:28.756Z,5.20
2019-05-25T01:34:38.703Z,5.17
2019-05-25T01:37:44.059Z,5.03
2019-05-25T01:40:51.746Z,4.73
2019-05-25T01:43:57.018Z,5.70
2019-05-25T01:47:02.094Z,4.93
2019-05-25T01:50:25.934Z,4.67
2019-05-25T01:53:31.250Z,5.73
2019-05-25T01:56:36.637Z,4.90
2019-05-25T01:59:41.605Z,5.70
2019-05-25T02:02:46.629Z,4.83
2019-05-25T02:05:51.792Z,4.87
2019-05-25T02:08:57.020Z,4.90
2019-05-25T02:12:02.374Z,4.30
2019-05-25T02:15:08.168Z,5.20
2019-05-25T02:18:13.216Z,5.00
2019-05-25T02:21:18.197Z,5.23
2019-05-25T02:24:23.221Z,5.77
2019-05-25T02:27:28.236Z,7.27
2019-05-25T02:30:33.513Z,4.47
2019-05-25T02:33:38.432Z,6.20
2019-05-25T02:36:43.507Z,4.90
2019-05-25T02:39:48.686Z,4.60
2019-05-25T02:42:54.468Z,4.60
2019-05-25T02:45:59.789Z,8.20
2019-05-25T02:49:05.103Z,4.63
2019-05-25T02:52:10.679Z,5.50
2019-05-25T02:55:24.853Z,8.30
2019-05-25T02:58:22.545Z,6.40
2019-05-25T03:01:27.509Z,5.50
2019-05-25T03:04:32.634Z,4.77
2019-05-25T03:07:38.920Z,6.10
2019-05-25T03:10:44.831Z,8.33
2019-05-25T03:13:50.764Z,5.10
2019-05-25T03:16:55.890Z,7.83
2019-05-25T03:20:01.164Z,5.77
2019-05-25T03:23:06.234Z,5.50
2019-05-25T03:26:11.040Z,5.70
2019-05-25T03:29:15.882Z,5.23
2019-05-25T03:32:20.819Z,5.80
2019-05-25T03:35:26.005Z,8.93
2019-05-25T03:38:30.916Z,5.77
2019-05-25T03:41:36.533Z,5.20
2019-05-25T03:44:41.608Z,6.23
2019-05-25T03:47:46.678Z,5.93
2019-05-25T03:50:51.643Z,6.63
2019-05-25T03:53:58.177Z,5.27
2019-05-25T03:57:03.691Z,6.40
2019-05-25T04:00:09.235Z,5.93
2019-05-25T04:03:14.347Z,6.60
2019-05-25T04:06:19.402Z,8.73
2019-05-25T04:09:24.563Z,7.47
2019-05-25T04:12:29.534Z,5.83
2019-05-25T04:15:34.662Z,6.47
2019-05-25T04:18:39.685Z,6.00
2019-05-25T04:21:44.594Z,6.03
2019-05-25T04:24:49.801Z,6.27
2019-05-25T04:27:54.954Z,5.80
2019-05-25T04:31:00.644Z,6.77
2019-05-25T04:34:05.799Z,6.40
2019-05-25T04:37:10.901Z,7.43
2019-05-25T04:40:16.617Z,6.47
2019-05-25T04:43:21.695Z,6.27
2019-05-25T04:46:27.945Z,5.77
2019-05-25T04:49:33.168Z,5.53
2019-05-25T04:52:41.087Z,6.10
2019-05-25T04:55:45.301Z,6.17
2019-05-25T04:58:50.245Z,6.00
2019-05-25T05:01:55.786Z,6.67
2019-05-25T05:05:00.605Z,7.50
2019-05-25T05:08:05.550Z,6.80
2019-05-25T05:11:10.785Z,7.00
2019-05-25T05:14:15.938Z,6.40
2019-05-25T05:17:22.410Z,6.80
2019-05-25T05:20:27.461Z,6.50
2019-05-25T05:23:32.383Z,5.60
2019-05-25T05:26:37.338Z,5.93
2019-05-25T05:29:42.458Z,6.47
2019-05-25T05:32:47.422Z,7.87
2019-05-25T05:35:53.012Z,6.90
2019-05-25T05:38:59.565Z,6.40
2019-05-25T05:42:07.524Z,6.20
2019-05-25T05:45:13.152Z,9.93
2019-05-25T05:48:21.209Z,6.03
2019-05-25T05:51:27.749Z,7.07
2019-05-25T05:54:34.044Z,5.93
2019-05-25T05:57:39.204Z,6.60
2019-05-25T06:00:45.349Z,6.40
2019-05-25T06:03:52.906Z,6.10
2019-05-25T06:06:57.680Z,5.20
2019-05-25T06:10:02.514Z,5.67
2019-05-25T06:13:07.253Z,5.03
2019-05-25T06:16:12.296Z,6.00
2019-05-25T06:19:17.159Z,6.37
2019-05-25T06:22:22.137Z,6.40
2019-05-25T06:25:27.409Z,6.00
2019-05-25T06:28:32.908Z,6.23
2019-05-25T06:31:38.378Z,6.80
2019-05-25T06:34:43.545Z,5.50
2019-05-25T06:37:48.586Z,4.87
2019-05-25T06:40:53.756Z,7.90
2019-05-25T06:43:58.996Z,6.00
2019-05-25T06:47:04.360Z,6.93
2019-05-25T06:50:09.758Z,5.43
2019-05-25T06:53:16.370Z,6.07
2019-05-25T06:56:21.866Z,5.40
2019-05-25T06:59:26.610Z,5.30
2019-05-25T07:02:31.786Z,6.50
2019-05-25T07:05:36.700Z,6.87
2019-05-25T07:08:41.549Z,4.80
2019-05-25T07:11:46.245Z,5.17
2019-05-25T07:14:51.185Z,4.57
2019-05-25T07:17:55.976Z,5.03
2019-05-25T07:21:00.735Z,5.37
2019-05-25T07:24:05.717Z,5.30
2019-05-25T07:27:10.943Z,5.43
2019-05-25T07:30:15.973Z,5.27
2019-05-25T07:33:20.719Z,5.90
2019-05-25T07:36:25.622Z,9.43
2019-05-25T07:39:30.822Z,5.20
2019-05-25T07:42:35.831Z,7.07
2019-05-25T07:45:40.867Z,6.47
2019-05-25T07:48:45.599Z,5.97
2019-05-25T07:51:50.462Z,5.90
2019-05-25T07:54:55.238Z,5.40
2019-05-25T07:58:15.643Z,5.90
2019-05-25T08:01:06.462Z,5.20
2019-05-25T08:04:11.172Z,5.47
2019-05-25T08:07:15.979Z,5.30
2019-05-25T08:10:20.719Z,5.77
2019-05-25T08:13:25.496Z,5.03
2019-05-25T08:16:30.592Z,5.17
2019-05-25T08:19:35.433Z,4.47
2019-05-25T08:22:40.175Z,5.97
2019-05-25T08:25:45.089Z,5.27
2019-05-25T08:28:50.150Z,5.20
2019-05-25T08:31:55.472Z,5.53
2019-05-25T08:35:00.824Z,5.30
2019-05-25T08:38:05.902Z,5.27
2019-05-25T08:41:11.010Z,5.07
2019-05-25T08:44:15.743Z,5.20
2019-05-25T08:47:20.751Z,5.07
2019-05-25T08:50:37.712Z,5.03
2019-05-25T08:53:41.071Z,5.17
2019-05-25T08:56:39.064Z,7.60
2019-05-25T08:59:44.153Z,4.60
2019-05-25T09:03:07.943Z,6.53
2019-05-25T09:06:12.668Z,5.53
2019-05-25T09:09:17.404Z,5.60
2019-05-25T09:12:22.142Z,5.53
2019-05-25T09:15:26.848Z,5.57
2019-05-25T09:18:31.901Z,5.03
2019-05-25T09:21:36.640Z,6.73
2019-05-25T09:24:41.368Z,5.37
2019-05-25T09:27:46.069Z,5.83
2019-05-25T09:30:51.145Z,4.50
2019-05-25T09:33:55.815Z,4.90
2019-05-25T09:37:00.689Z,4.63
2019-05-25T09:40:06.768Z,4.43
2019-05-25T09:43:13.108Z,5.13
2019-05-25T09:46:17.798Z,5.33
2019-05-25T09:49:22.609Z,5.10
2019-05-25T09:52:27.313Z,5.33
2019-05-25T09:55:32.323Z,4.70
2019-05-25T09:58:37.220Z,5.40
2019-05-25T10:01:42.192Z,4.50
2019-05-25T10:04:46.907Z,4.20
2019-05-25T10:07:51.771Z,4.37
2019-05-25T10:10:56.484Z,4.63
2019-05-25T10:14:01.372Z,4.50
2019-05-25T10:17:06.049Z,4.77
2019-05-25T10:20:11.701Z,4.50
2019-05-25T10:23:16.482Z,4.70
2019-05-25T10:26:22.973Z,5.20
2019-05-25T10:29:36.561Z,5.10
2019-05-25T10:32:34.194Z,5.10
2019-05-25T10:35:39.157Z,5.60
2019-05-25T10:38:44.280Z,5.30
2019-05-25T10:41:51.299Z,4.67
2019-05-25T10:44:56.546Z,5.37
2019-05-25T10:48:01.567Z,4.93
2019-05-25T10:51:06.649Z,4.87
2019-05-25T10:54:12.070Z,5.00
2019-05-25T10:57:17.096Z,4.70
2019-05-25T11:00:22.368Z,4.60
2019-05-25T11:03:27.409Z,4.80
2019-05-25T11:06:34.790Z,4.27
2019-05-25T11:09:39.558Z,4.40
2019-05-25T11:12:44.462Z,4.20
2019-05-25T11:15:49.455Z,5.60
2019-05-25T11:18:54.590Z,4.43
2019-05-25T11:21:59.513Z,5.73
2019-05-25T11:25:06.530Z,5.50
2019-05-25T11:28:11.649Z,4.90
2019-05-25T11:31:16.657Z,4.17
2019-05-25T11:34:22.070Z,4.63
2019-05-25T11:37:27.120Z,4.40
2019-05-25T11:40:32.208Z,4.40
2019-05-25T11:43:37.122Z,4.83
2019-05-25T11:46:42.113Z,4.70
2019-05-25T11:49:47.233Z,5.77
2019-05-25T11:52:52.387Z,5.57
2019-05-25T11:55:57.522Z,5.03
2019-05-25T11:59:02.442Z,4.50
2019-05-25T12:02:07.898Z,4.40
2019-05-25T12:05:14.526Z,4.67
2019-05-25T12:08:19.402Z,4.60
2019-05-25T12:11:24.138Z,4.33
2019-05-25T12:14:28.916Z,4.10
2019-05-25T12:17:33.693Z,4.63
2019-05-25T12:20:38.487Z,4.40
2019-05-25T12:23:43.562Z,4.63
2019-05-25T12:26:48.494Z,4.40
2019-05-25T12:29:53.259Z,4.80
2019-05-25T12:32:59.241Z,4.60
2019-05-25T12:36:04.966Z,7.80
2019-05-25T12:39:09.897Z,4.53
2019-05-25T12:42:14.836Z,4.83
2019-05-25T12:45:20.165Z,4.80
2019-05-25T12:48:25.185Z,4.53
2019-05-25T12:51:30.178Z,4.20
2019-05-25T12:54:35.419Z,4.47
2019-05-25T12:57:40.171Z,4.77
2019-05-25T13:00:55.729Z,4.50
2019-05-25T13:03:51.383Z,4.80
2019-05-25T13:06:56.302Z,4.40
2019-05-25T13:10:01.333Z,4.67
2019-05-25T13:13:06.501Z,4.93
2019-05-25T13:16:11.552Z,4.47
2019-05-25T13:19:17.061Z,4.90
2019-05-25T13:22:22.211Z,5.13
2019-05-25T13:25:27.362Z,5.10
2019-05-25T13:28:36.027Z,4.77
2019-05-25T13:31:41.676Z,4.07
2019-05-25T13:34:46.998Z,4.70
2019-05-25T13:37:52.412Z,4.57
2019-05-25T13:40:57.865Z,4.62
2019-05-25T13:44:02.957Z,4.70
2019-05-25T13:47:08.178Z,4.90
2019-05-25T13:50:14.964Z,5.03
2019-05-25T13:53:19.832Z,7.10
2019-05-25T13:56:24.779Z,4.57
2019-05-25T13:59:30.133Z,5.40
2019-05-25T14:02:35.174Z,4.67
2019-05-25T14:05:40.247Z,4.43
2019-05-25T14:08:44.930Z,4.73
2019-05-25T14:11:49.735Z,4.53
2019-05-25T14:14:54.499Z,4.90
2019-05-25T14:17:59.324Z,5.90
2019-05-25T14:21:04.094Z,4.43
2019-05-25T14:24:08.872Z,4.83
2019-05-25T14:27:13.574Z,6.37
2019-05-25T14:30:19.525Z,4.60
2019-05-25T14:33:24.348Z,4.30
2019-05-25T14:36:29.082Z,5.17
2019-05-25T14:39:34.506Z,4.73
2019-05-25T14:42:39.271Z,4.77
2019-05-25T14:45:43.972Z,4.37
2019-05-25T14:48:48.848Z,4.90
2019-05-25T14:51:53.590Z,4.67
2019-05-25T14:54:58.467Z,4.60
2019-05-25T14:58:03.381Z,4.73
2019-05-25T15:01:08.214Z,4.70
2019-05-25T15:04:12.965Z,4.40
2019-05-25T15:07:18.902Z,4.90
2019-05-25T15:10:23.654Z,6.20
2019-05-25T15:13:28.414Z,4.63
2019-05-25T15:16:33.771Z,6.37
2019-05-25T15:19:38.594Z,4.40
2019-05-25T15:22:46.635Z,4.07
2019-05-25T15:25:50.023Z,3.80
2019-05-25T15:28:54.791Z,4.27
2019-05-25T15:31:59.501Z,5.87
2019-05-25T15:35:04.485Z,6.13
2019-05-25T15:38:09.170Z,2.87
2019-05-25T15:41:13.898Z,7.73
2019-05-25T15:44:18.719Z,4.73
2019-05-25T15:47:23.485Z,2.87
2019-05-25T15:50:28.297Z,3.27
2019-05-25T15:53:33.038Z,3.50
2019-05-25T15:56:37.774Z,4.60
2019-05-25T15:59:42.507Z,4.53
2019-05-25T16:02:47.365Z,3.33
2019-05-25T16:05:52.413Z,3.27
2019-05-25T16:08:57.303Z,4.63
2019-05-25T16:12:02.052Z,4.80
2019-05-25T16:15:07.373Z,4.10
2019-05-25T16:18:14.180Z,3.97
2019-05-25T16:21:19.134Z,4.50
2019-05-25T16:24:24.081Z,3.23
2019-05-25T16:27:29.061Z,2.93
2019-05-25T16:30:33.964Z,3.50
2019-05-25T16:33:39.126Z,2.77
2019-05-25T16:36:44.032Z,3.60
2019-05-25T16:39:49.123Z,3.53
2019-05-25T16:42:54.364Z,3.73
2019-05-25T16:45:59.409Z,3.43
2019-05-25T16:49:05.109Z,3.67
2019-05-25T16:52:10.200Z,4.17
2019-05-25T16:55:15.533Z,3.50
2019-05-25T16:58:20.598Z,3.33
2019-05-25T17:01:25.719Z,3.20
2019-05-25T17:04:30.788Z,4.27
2019-05-25T17:07:35.926Z,3.03
2019-05-25T17:10:41.115Z,3.83
2019-05-25T17:13:46.112Z,3.30
2019-05-25T17:16:52.515Z,3.83
2019-05-25T17:19:57.571Z,4.27
2019-05-25T17:23:03.322Z,3.20
2019-05-25T17:26:08.307Z,3.27
2019-05-25T17:29:13.317Z,3.63
2019-05-25T17:32:18.442Z,3.40
2019-05-25T17:35:23.695Z,3.50
2019-05-25T17:38:28.681Z,3.23
2019-05-25T17:41:34.121Z,3.37
2019-05-25T17:44:39.219Z,3.30
2019-05-25T17:47:44.625Z,3.23
2019-05-25T17:50:49.375Z,4.00
2019-05-25T17:53:54.209Z,3.43
2019-05-25T17:56:58.959Z,3.23
2019-05-25T18:00:04.830Z,3.70
2019-05-25T18:03:09.760Z,4.10
2019-05-25T18:06:14.847Z,4.10
2019-05-25T18:09:19.983Z,4.07
2019-05-25T18:12:24.738Z,4.27
2019-05-25T18:15:33.749Z,4.20
2019-05-25T18:18:38.460Z,4.57
2019-05-25T18:21:43.728Z,4.83
2019-05-25T18:24:48.465Z,4.37
2019-05-25T18:27:53.358Z,5.10
2019-05-25T18:30:58.261Z,5.23
2019-05-25T18:34:03.142Z,5.27
2019-05-25T18:37:07.875Z,5.20
2019-05-25T18:40:13.475Z,4.60
2019-05-25T18:43:18.211Z,5.63
2019-05-25T18:46:23.204Z,5.40
2019-05-25T18:49:27.947Z,5.20
2019-05-25T18:52:32.884Z,8.30
2019-05-25T18:55:37.708Z,5.20
2019-05-25T18:58:42.709Z,5.33
2019-05-25T19:01:47.493Z,5.67
2019-05-25T19:04:59.474Z,5.60
2019-05-25T19:07:59.789Z,6.10
2019-05-25T19:11:04.561Z,6.20
2019-05-25T19:14:09.429Z,5.50
2019-05-25T19:17:14.129Z,5.97
2019-05-25T19:20:21.275Z,6.60
2019-05-25T19:23:25.958Z,6.33
2019-05-25T19:26:30.919Z,5.97
2019-05-25T19:29:35.710Z,5.60
2019-05-25T19:32:40.681Z,5.83
2019-05-25T19:35:47.267Z,6.27
2019-05-25T19:38:52.236Z,6.67
2019-05-25T19:41:57.334Z,9.07
2019-05-25T19:45:02.628Z,6.40
2019-05-25T19:48:07.797Z,6.43
2019-05-25T19:51:12.877Z,5.87
2019-05-25T19:54:18.192Z,7.03
2019-05-25T19:57:23.643Z,7.90
2019-05-25T20:00:30.183Z,6.37
2019-05-25T20:03:35.354Z,6.67
2019-05-25T20:06:40.317Z,6.47
2019-05-25T20:09:45.236Z,7.90
2019-05-25T20:12:50.100Z,7.17
2019-05-25T20:15:54.949Z,6.93
2019-05-25T20:18:59.735Z,7.17
2019-05-25T20:22:04.690Z,7.83
2019-05-25T20:25:11.892Z,7.27
2019-05-25T20:28:17.146Z,7.13
2019-05-25T20:31:22.293Z,7.10
2019-05-25T20:34:27.598Z,6.70
2019-05-25T20:37:33.651Z,6.30
2019-05-25T20:40:38.586Z,7.40
2019-05-25T20:43:44.147Z,6.90
2019-05-25T20:46:49.313Z,6.50
2019-05-25T20:49:55.139Z,7.33
2019-05-25T20:53:00.824Z,6.92
2019-05-25T20:56:05.857Z,6.87
2019-05-25T20:59:11.217Z,7.23
2019-05-25T21:02:16.556Z,6.63
2019-05-25T21:05:21.570Z,7.43
2019-05-25T21:08:26.589Z,6.00
2019-05-25T21:11:31.579Z,6.17
2019-05-25T21:14:36.833Z,6.93
2019-05-25T21:17:42.203Z,6.77
2019-05-25T21:20:48.369Z,6.67
2019-05-25T21:23:53.116Z,6.40
2019-05-25T21:26:57.825Z,6.63
2019-05-25T21:30:02.575Z,7.10
2019-05-25T21:33:07.351Z,7.20
2019-05-25T21:36:12.262Z,5.90
2019-05-25T21:39:18.331Z,6.27
2019-05-25T21:42:23.332Z,6.10
2019-05-25T21:45:28.389Z,7.00
2019-05-25T21:48:33.237Z,7.87
2019-05-25T21:51:38.155Z,7.40
2019-05-25T21:54:43.369Z,7.73
2019-05-25T21:57:48.249Z,7.17
2019-05-25T22:00:53.635Z,7.73
2019-05-25T22:03:58.770Z,6.87
2019-05-25T22:07:03.969Z,6.40
2019-05-25T22:10:10.337Z,6.70
2019-05-25T22:13:27.965Z,6.93
2019-05-25T22:16:23.034Z,7.07
2019-05-25T22:19:28.061Z,7.07
2019-05-25T22:22:33.343Z,8.50
2019-05-25T22:25:38.400Z,6.30
2019-05-25T22:28:45.049Z,7.20
2019-05-25T22:31:50.270Z,8.00
2019-05-25T22:34:55.345Z,6.67
2019-05-25T22:38:01.018Z,6.25
2019-05-25T22:41:08.984Z,7.10
2019-05-25T22:44:13.993Z,6.17
2019-05-25T22:47:18.981Z,7.60
2019-05-25T22:50:26.926Z,8.03
2019-05-25T22:53:31.665Z,6.80
2019-05-25T22:56:36.729Z,8.20
2019-05-25T22:59:41.864Z,6.40
2019-05-25T23:02:46.890Z,6.67
2019-05-25T23:05:52.128Z,7.97
2019-05-25T23:08:57.235Z,6.83
2019-05-25T23:12:02.120Z,6.80
2019-05-25T23:15:07.938Z,6.57
2019-05-25T23:18:12.887Z,6.80
2019-05-25T23:21:17.962Z,7.40
2019-05-25T23:24:22.920Z,6.40
2019-05-25T23:27:28.033Z,6.67
2019-05-25T23:30:33.034Z,6.50
2019-05-25T23:33:38.315Z,6.90
2019-05-25T23:36:43.210Z,6.87
2019-05-25T23:39:48.149Z,7.20
2019-05-25T23:42:53.093Z,7.23
2019-05-25T23:45:58.123Z,6.20
2019-05-25T23:49:03.202Z,6.00
2019-05-25T23:52:08.153Z,6.97
2019-05-25T23:55:14.197Z,6.77
2019-05-25T23:58:19.490Z,6.73
